Alvo, Nebraska
Current Conditions -  °F | °C
As of 10:09 PM on Saturday 22 Nov 2014 (Local Time) from KLNK Reporting Station
Scattered Clouds Scattered Clouds  
Wind Chill: 56°   Ceiling: Unl
Heat Index: 56°   Visibility: 10mi
Dew Point: 51°   Wind: 16mph
Humidity: 84%   Direction: 190°S
Pressure: 29.57"   Gusts: NA
Location:  40.87°N, 96.39°W
Report Text: KLNK 230409Z AUTO 19014KT 10SM SCT016 SCT033 13/11 A2957 RMK AO2 T01330106
Loading
Personal Weather Stations






























Interactive Weather Map New forecast layout! Learn more

10-Day Weather Forecast

Advertisements
Track Severe Weather on mobile